AFR97SJ EHAM-LFPG
Flight info
| Callsign | AFR97SJ |
|---|---|
| Flight time | 1h 6m |
| Altitude | 29000 |
| Route | WOODY N872 DENOX DCT SISGA DCT DELOM DCT MOPIL |
| Aircraft | A320/M-SDE3FGHIRWY/LB1 |
Departure
| Time | 2026-05-08 19:39 |
|---|---|
| Airport | Amsterdam Airport Schiphol (EHAM) |
Arrival
| Time | 2026-05-08 20:46 |
|---|---|
| Airport | Charles de Gaulle International Airport (LFPG) |
| Time | Latitude | Longitude | Altitude | Speed | Heading |
|---|---|---|---|---|---|
| 2026-05-08 18:55 | 52.30713 | 4.77026 | -1 ft | 0 kts | 3° |
| 2026-05-08 19:22 | 52.30706 | 4.77025 | -1 ft | 4 kts | 3° |
| 2026-05-08 19:22 | 52.30681 | 4.77023 | -1 ft | 2 kts | 3° |
| 2026-05-08 19:23 | 52.30661 | 4.77017 | -1 ft | 4 kts | 45° |
| 2026-05-08 19:23 | 52.30654 | 4.76986 | -1 ft | 4 kts | 93° |
| 2026-05-08 19:23 | 52.30655 | 4.76948 | -1 ft | 3 kts | 93° |
| 2026-05-08 19:23 | 52.30658 | 4.76904 | -1 ft | 4 kts | 102° |
| 2026-05-08 19:24 | 52.30667 | 4.76865 | -1 ft | 4 kts | 132° |
| 2026-05-08 19:24 | 52.30675 | 4.76852 | -1 ft | 0 kts | 147° |
| 2026-05-08 19:26 | 52.30674 | 4.76853 | -1 ft | 2 kts | 147° |
| 2026-05-08 19:26 | 52.30638 | 4.76855 | -1 ft | 9 kts | 195° |
| 2026-05-08 19:26 | 52.30567 | 4.76909 | -1 ft | 12 kts | 148° |
| 2026-05-08 19:27 | 52.30502 | 4.76971 | -1 ft | 10 kts | 160° |
| 2026-05-08 19:27 | 52.30451 | 4.76931 | -1 ft | 8 kts | 236° |
| 2026-05-08 19:27 | 52.30419 | 4.76845 | -1 ft | 12 kts | 237° |
| 2026-05-08 19:27 | 52.30357 | 4.76685 | -1 ft | 19 kts | 238° |
| 2026-05-08 19:28 | 52.30281 | 4.76488 | -1 ft | 22 kts | 238° |
| 2026-05-08 19:28 | 52.30200 | 4.76276 | -1 ft | 23 kts | 238° |
| 2026-05-08 19:28 | 52.30113 | 4.76052 | -1 ft | 24 kts | 238° |
| 2026-05-08 19:28 | 52.30023 | 4.75813 | -1 ft | 25 kts | 238° |
| 2026-05-08 19:29 | 52.29935 | 4.75583 | -1 ft | 20 kts | 238° |
| 2026-05-08 19:29 | 52.29867 | 4.75408 | -1 ft | 18 kts | 238° |
| 2026-05-08 19:29 | 52.29836 | 4.75229 | -1 ft | 16 kts | 282° |
| 2026-05-08 19:29 | 52.29900 | 4.75086 | -1 ft | 17 kts | 311° |
| 2026-05-08 19:30 | 52.29989 | 4.74920 | -1 ft | 22 kts | 311° |
| 2026-05-08 19:30 | 52.30092 | 4.74730 | 3 ft | 22 kts | 311° |
| 2026-05-08 19:30 | 52.30182 | 4.74565 | 10 ft | 19 kts | 311° |
| 2026-05-08 19:30 | 52.30273 | 4.74397 | 10 ft | 20 kts | 311° |
| 2026-05-08 19:31 | 52.30350 | 4.74212 | -1 ft | 12 kts | 291° |
| 2026-05-08 19:31 | 52.30353 | 4.74095 | -1 ft | 10 kts | 248° |
| 2026-05-08 19:31 | 52.30310 | 4.74021 | -1 ft | 8 kts | 218° |
| 2026-05-08 19:31 | 52.30307 | 4.74018 | -1 ft | 0 kts | 217° |
| 2026-05-08 19:33 | 52.30303 | 4.74013 | -1 ft | 2 kts | 217° |
| 2026-05-08 19:34 | 52.30293 | 4.74001 | -1 ft | 3 kts | 217° |
| 2026-05-08 19:34 | 52.30259 | 4.73958 | -1 ft | 9 kts | 217° |
| 2026-05-08 19:34 | 52.30224 | 4.73915 | -1 ft | 0 kts | 217° |
| 2026-05-08 19:35 | 52.30206 | 4.73893 | -2 ft | 11 kts | 219° |
| 2026-05-08 19:36 | 52.30197 | 4.73771 | -2 ft | 11 kts | 301° |
| 2026-05-08 19:36 | 52.30246 | 4.73744 | -3 ft | 0 kts | 2° |
| 2026-05-08 19:38 | 52.30259 | 4.73744 | -4 ft | 11 kts | 2° |
| 2026-05-08 19:39 | 52.30611 | 4.73773 | -3 ft | 86 kts | 4° |
| 2026-05-08 19:39 | 52.31412 | 4.73849 | -2 ft | 141 kts | 3° |
| 2026-05-08 19:39 | 52.32519 | 4.73944 | 228 ft | 169 kts | 3° |
| 2026-05-08 19:39 | 52.33677 | 4.74202 | 916 ft | 167 kts | 22° |
| 2026-05-08 19:40 | 52.34756 | 4.74895 | 1686 ft | 166 kts | 24° |
| 2026-05-08 19:40 | 52.35873 | 4.75627 | 2128 ft | 182 kts | 24° |
| 2026-05-08 19:40 | 52.36991 | 4.76785 | 2398 ft | 203 kts | 52° |
| 2026-05-08 19:40 | 52.37475 | 4.79027 | 2755 ft | 222 kts | 94° |
| 2026-05-08 19:41 | 52.37173 | 4.81513 | 3542 ft | 224 kts | 105° |
| 2026-05-08 19:41 | 52.36424 | 4.83753 | 4304 ft | 230 kts | 137° |
| 2026-05-08 19:41 | 52.34980 | 4.84971 | 4851 ft | 248 kts | 172° |
| 2026-05-08 19:41 | 52.33216 | 4.85033 | 5357 ft | 264 kts | 182° |
| 2026-05-08 19:42 | 52.31359 | 4.84965 | 6203 ft | 269 kts | 183° |
| 2026-05-08 19:42 | 52.29479 | 4.84895 | 7068 ft | 272 kts | 183° |
| 2026-05-08 19:42 | 52.27573 | 4.84833 | 7893 ft | 276 kts | 182° |
| 2026-05-08 19:42 | 52.25637 | 4.84784 | 8715 ft | 280 kts | 182° |
| 2026-05-08 19:43 | 52.23673 | 4.84743 | 9539 ft | 284 kts | 182° |
| 2026-05-08 19:43 | 52.21677 | 4.84700 | 10325 ft | 289 kts | 181° |
| 2026-05-08 19:43 | 52.19646 | 4.84655 | 10925 ft | 300 kts | 181° |
| 2026-05-08 19:43 | 52.17480 | 4.84605 | 11151 ft | 323 kts | 181° |
| 2026-05-08 19:44 | 52.15147 | 4.84553 | 11351 ft | 345 kts | 181° |
| 2026-05-08 19:44 | 52.12703 | 4.84502 | 11872 ft | 354 kts | 181° |
| 2026-05-08 19:44 | 52.10224 | 4.84452 | 12571 ft | 358 kts | 181° |
| 2026-05-08 19:44 | 52.07744 | 4.84405 | 13287 ft | 361 kts | 181° |
| 2026-05-08 19:45 | 52.05228 | 4.84358 | 14004 ft | 364 kts | 181° |
| 2026-05-08 19:45 | 52.02702 | 4.83972 | 14618 ft | 367 kts | 191° |
| 2026-05-08 19:45 | 52.00241 | 4.82818 | 15236 ft | 369 kts | 202° |
| 2026-05-08 19:45 | 51.97903 | 4.81049 | 15835 ft | 372 kts | 206° |
| 2026-05-08 19:46 | 51.95566 | 4.79205 | 16447 ft | 375 kts | 206° |
| 2026-05-08 19:46 | 51.93199 | 4.77343 | 17034 ft | 379 kts | 206° |
| 2026-05-08 19:46 | 51.88416 | 4.73599 | 18208 ft | 384 kts | 206° |
| 2026-05-08 19:47 | 51.85998 | 4.71713 | 18712 ft | 388 kts | 206° |
| 2026-05-08 19:47 | 51.83552 | 4.69809 | 19164 ft | 392 kts | 206° |
| 2026-05-08 19:47 | 51.81083 | 4.67891 | 19640 ft | 395 kts | 206° |
| 2026-05-08 19:47 | 51.78597 | 4.65957 | 20118 ft | 398 kts | 206° |
| 2026-05-08 19:48 | 51.76090 | 4.64005 | 20559 ft | 402 kts | 206° |
| 2026-05-08 19:48 | 51.73557 | 4.62034 | 20998 ft | 406 kts | 206° |
| 2026-05-08 19:48 | 51.71002 | 4.60048 | 21426 ft | 409 kts | 206° |
| 2026-05-08 19:48 | 51.68417 | 4.58042 | 21841 ft | 413 kts | 206° |
| 2026-05-08 19:49 | 51.65851 | 4.56061 | 22260 ft | 416 kts | 206° |
| 2026-05-08 19:49 | 51.63224 | 4.54039 | 22684 ft | 420 kts | 206° |
| 2026-05-08 19:49 | 51.60582 | 4.52008 | 23106 ft | 423 kts | 206° |
| 2026-05-08 19:49 | 51.57920 | 4.49957 | 23526 ft | 426 kts | 206° |
| 2026-05-08 19:50 | 51.55237 | 4.47888 | 23900 ft | 429 kts | 206° |
| 2026-05-08 19:50 | 51.52537 | 4.45809 | 24219 ft | 432 kts | 206° |
| 2026-05-08 19:50 | 51.49814 | 4.43716 | 24544 ft | 435 kts | 206° |
| 2026-05-08 19:50 | 51.47065 | 4.41613 | 24841 ft | 439 kts | 206° |
| 2026-05-08 19:51 | 51.44295 | 4.39497 | 25146 ft | 443 kts | 206° |
| 2026-05-08 19:51 | 51.41509 | 4.37366 | 25441 ft | 446 kts | 207° |
| 2026-05-08 19:51 | 51.38699 | 4.35218 | 25748 ft | 449 kts | 207° |
| 2026-05-08 19:51 | 51.35870 | 4.33065 | 26055 ft | 452 kts | 207° |
| 2026-05-08 19:52 | 51.33019 | 4.30903 | 26368 ft | 455 kts | 207° |
| 2026-05-08 19:52 | 51.30146 | 4.28731 | 26688 ft | 458 kts | 207° |
| 2026-05-08 19:52 | 51.27256 | 4.26542 | 26989 ft | 461 kts | 207° |
| 2026-05-08 19:52 | 51.24350 | 4.24340 | 27263 ft | 464 kts | 207° |
| 2026-05-08 19:53 | 51.21417 | 4.22117 | 27506 ft | 468 kts | 207° |
| 2026-05-08 19:53 | 51.18472 | 4.19882 | 27776 ft | 470 kts | 207° |
| 2026-05-08 19:53 | 51.15499 | 4.17826 | 28040 ft | 474 kts | 201° |
| 2026-05-08 19:53 | 51.12329 | 4.16072 | 28295 ft | 477 kts | 200° |
| 2026-05-08 19:54 | 51.09179 | 4.14343 | 28548 ft | 480 kts | 200° |
| 2026-05-08 19:54 | 51.06049 | 4.12633 | 28797 ft | 483 kts | 200° |
| 2026-05-08 19:54 | 51.02862 | 4.10896 | 29044 ft | 485 kts | 200° |
| 2026-05-08 19:54 | 50.99678 | 4.09166 | 29114 ft | 481 kts | 200° |
| 2026-05-08 19:55 | 50.93377 | 4.05748 | 29115 ft | 477 kts | 201° |
| 2026-05-08 19:55 | 50.86919 | 4.03323 | 29113 ft | 479 kts | 186° |
| 2026-05-08 19:56 | 50.80252 | 4.03628 | 29111 ft | 480 kts | 176° |
| 2026-05-08 19:56 | 50.73558 | 4.04390 | 29111 ft | 483 kts | 176° |
| 2026-05-08 19:57 | 50.66848 | 4.05127 | 29109 ft | 483 kts | 176° |
| 2026-05-08 19:57 | 50.60135 | 4.05844 | 29105 ft | 483 kts | 176° |
| 2026-05-08 19:58 | 50.53472 | 4.06566 | 29092 ft | 483 kts | 176° |
| 2026-05-08 19:58 | 50.46770 | 4.07307 | 29090 ft | 483 kts | 176° |
| 2026-05-08 19:59 | 50.40062 | 4.08040 | 29097 ft | 483 kts | 176° |
| 2026-05-08 19:59 | 50.33470 | 4.08747 | 29112 ft | 469 kts | 176° |
| 2026-05-08 20:00 | 50.26987 | 4.09442 | 28652 ft | 462 kts | 176° |
| 2026-05-08 20:00 | 50.23794 | 4.09785 | 28114 ft | 457 kts | 176° |
| 2026-05-08 20:00 | 50.20640 | 4.10126 | 27633 ft | 451 kts | 176° |
| 2026-05-08 20:01 | 50.17532 | 4.10467 | 27206 ft | 445 kts | 176° |
| 2026-05-08 20:01 | 50.14451 | 4.10717 | 27081 ft | 442 kts | 181° |
| 2026-05-08 20:01 | 50.11375 | 4.10527 | 26909 ft | 444 kts | 184° |
| 2026-05-08 20:01 | 50.08255 | 4.10289 | 25997 ft | 450 kts | 184° |
| 2026-05-08 20:02 | 50.05186 | 4.10057 | 25554 ft | 432 kts | 183° |
| 2026-05-08 20:02 | 50.02231 | 4.09936 | 24830 ft | 420 kts | 175° |
| 2026-05-08 20:02 | 49.99424 | 4.10947 | 24323 ft | 412 kts | 155° |
| 2026-05-08 20:02 | 49.97029 | 4.13309 | 24137 ft | 408 kts | 136° |
| 2026-05-08 20:03 | 49.95013 | 4.16387 | 24089 ft | 406 kts | 133° |
| 2026-05-08 20:03 | 49.93041 | 4.19535 | 24111 ft | 407 kts | 133° |
| 2026-05-08 20:03 | 49.91069 | 4.22690 | 24111 ft | 407 kts | 133° |
| 2026-05-08 20:03 | 49.89099 | 4.25840 | 24108 ft | 407 kts | 133° |
| 2026-05-08 20:04 | 49.87128 | 4.28982 | 23916 ft | 405 kts | 133° |
| 2026-05-08 20:04 | 49.85170 | 4.32104 | 23389 ft | 402 kts | 133° |
| 2026-05-08 20:04 | 49.83262 | 4.35159 | 22863 ft | 398 kts | 133° |
| 2026-05-08 20:04 | 49.81325 | 4.38273 | 22344 ft | 394 kts | 133° |
| 2026-05-08 20:05 | 49.79440 | 4.41313 | 21836 ft | 390 kts | 133° |
| 2026-05-08 20:05 | 49.77570 | 4.44336 | 21339 ft | 387 kts | 133° |
| 2026-05-08 20:05 | 49.75739 | 4.47303 | 20871 ft | 384 kts | 133° |
| 2026-05-08 20:05 | 49.73916 | 4.50297 | 20392 ft | 381 kts | 130° |
| 2026-05-08 20:06 | 49.72550 | 4.53750 | 20114 ft | 376 kts | 110° |
| 2026-05-08 20:06 | 49.72079 | 4.57700 | 20094 ft | 375 kts | 89° |
| 2026-05-08 20:06 | 49.72529 | 4.61645 | 20106 ft | 375 kts | 68° |
| 2026-05-08 20:06 | 49.73840 | 4.65107 | 20105 ft | 374 kts | 48° |
| 2026-05-08 20:07 | 49.75102 | 4.66903 | 20105 ft | 373 kts | 34° |
| 2026-05-08 20:07 | 49.77423 | 4.68622 | 20103 ft | 371 kts | 13° |
| 2026-05-08 20:07 | 49.79980 | 4.68978 | 20110 ft | 370 kts | 355° |
| 2026-05-08 20:07 | 49.83381 | 4.68439 | 20109 ft | 370 kts | 353° |
| 2026-05-08 20:08 | 49.85940 | 4.67979 | 20109 ft | 371 kts | 353° |
| 2026-05-08 20:08 | 49.87674 | 4.67661 | 20111 ft | 371 kts | 353° |
| 2026-05-08 20:08 | 49.90236 | 4.67190 | 20109 ft | 371 kts | 353° |
| 2026-05-08 20:08 | 49.92800 | 4.66723 | 20109 ft | 371 kts | 353° |
| 2026-05-08 20:09 | 49.95343 | 4.66068 | 20109 ft | 370 kts | 342° |
| 2026-05-08 20:09 | 49.97658 | 4.64348 | 20118 ft | 370 kts | 324° |
| 2026-05-08 20:09 | 49.99499 | 4.61589 | 20115 ft | 369 kts | 306° |
| 2026-05-08 20:09 | 50.00671 | 4.58060 | 20116 ft | 369 kts | 287° |
| 2026-05-08 20:10 | 50.01051 | 4.54132 | 20110 ft | 371 kts | 269° |
| 2026-05-08 20:10 | 50.00613 | 4.50227 | 20114 ft | 373 kts | 251° |
| 2026-05-08 20:10 | 49.99415 | 4.46681 | 19826 ft | 371 kts | 233° |
| 2026-05-08 20:10 | 49.97763 | 4.43621 | 19336 ft | 369 kts | 229° |
| 2026-05-08 20:11 | 49.96084 | 4.40621 | 18910 ft | 366 kts | 229° |
| 2026-05-08 20:11 | 49.94412 | 4.37658 | 18497 ft | 363 kts | 229° |
| 2026-05-08 20:11 | 49.92758 | 4.34722 | 18056 ft | 359 kts | 229° |
| 2026-05-08 20:11 | 49.91122 | 4.31809 | 17601 ft | 356 kts | 229° |
| 2026-05-08 20:12 | 49.89500 | 4.28927 | 17141 ft | 354 kts | 227° |
| 2026-05-08 20:12 | 49.87630 | 4.26511 | 16704 ft | 349 kts | 208° |
| 2026-05-08 20:12 | 49.85343 | 4.25339 | 16288 ft | 346 kts | 187° |
| 2026-05-08 20:12 | 49.82951 | 4.25068 | 15837 ft | 344 kts | 183° |
| 2026-05-08 20:13 | 49.80571 | 4.24902 | 15388 ft | 342 kts | 182° |
| 2026-05-08 20:13 | 49.78204 | 4.24751 | 15119 ft | 340 kts | 182° |
| 2026-05-08 20:13 | 49.75834 | 4.24598 | 15098 ft | 341 kts | 182° |
| 2026-05-08 20:13 | 49.73465 | 4.24447 | 15101 ft | 340 kts | 182° |
| 2026-05-08 20:14 | 49.71094 | 4.24297 | 15095 ft | 341 kts | 182° |
| 2026-05-08 20:14 | 49.68732 | 4.24151 | 15097 ft | 339 kts | 182° |
| 2026-05-08 20:14 | 49.66398 | 4.24008 | 15096 ft | 341 kts | 182° |
| 2026-05-08 20:14 | 49.64019 | 4.23868 | 15098 ft | 343 kts | 182° |
| 2026-05-08 20:15 | 49.61632 | 4.23731 | 15095 ft | 343 kts | 182° |
| 2026-05-08 20:15 | 49.59245 | 4.23596 | 15095 ft | 343 kts | 182° |
| 2026-05-08 20:15 | 49.56861 | 4.23462 | 15095 ft | 343 kts | 182° |
| 2026-05-08 20:15 | 49.54472 | 4.23327 | 15095 ft | 343 kts | 182° |
| 2026-05-08 20:16 | 49.52080 | 4.23192 | 15087 ft | 343 kts | 182° |
| 2026-05-08 20:16 | 49.49710 | 4.22855 | 15086 ft | 343 kts | 194° |
| 2026-05-08 20:16 | 49.47521 | 4.21460 | 15089 ft | 342 kts | 213° |
| 2026-05-08 20:16 | 49.45769 | 4.19017 | 15090 ft | 342 kts | 233° |
| 2026-05-08 20:17 | 49.44662 | 4.15794 | 15086 ft | 342 kts | 253° |
| 2026-05-08 20:17 | 49.44312 | 4.12198 | 15089 ft | 342 kts | 267° |
| 2026-05-08 20:17 | 49.44203 | 4.08544 | 15084 ft | 342 kts | 267° |
| 2026-05-08 20:17 | 49.44087 | 4.04887 | 15084 ft | 342 kts | 266° |
| 2026-05-08 20:18 | 49.43964 | 4.01238 | 15085 ft | 342 kts | 266° |
| 2026-05-08 20:18 | 49.43837 | 3.97589 | 15087 ft | 342 kts | 266° |
| 2026-05-08 20:18 | 49.43710 | 3.93941 | 15087 ft | 342 kts | 266° |
| 2026-05-08 20:18 | 49.43583 | 3.90290 | 15087 ft | 342 kts | 266° |
| 2026-05-08 20:19 | 49.43458 | 3.86643 | 15089 ft | 342 kts | 266° |
| 2026-05-08 20:19 | 49.43334 | 3.82995 | 15087 ft | 342 kts | 266° |
| 2026-05-08 20:19 | 49.43207 | 3.79347 | 15087 ft | 342 kts | 266° |
| 2026-05-08 20:19 | 49.43075 | 3.75692 | 15087 ft | 342 kts | 266° |
| 2026-05-08 20:20 | 49.42942 | 3.72045 | 15082 ft | 342 kts | 266° |
| 2026-05-08 20:20 | 49.42810 | 3.68445 | 15084 ft | 342 kts | 266° |
| 2026-05-08 20:20 | 49.42677 | 3.64748 | 15084 ft | 342 kts | 266° |
| 2026-05-08 20:20 | 49.42548 | 3.61144 | 15084 ft | 342 kts | 266° |
| 2026-05-08 20:21 | 49.42413 | 3.57486 | 15085 ft | 342 kts | 266° |
| 2026-05-08 20:21 | 49.42271 | 3.53841 | 15085 ft | 343 kts | 266° |
| 2026-05-08 20:21 | 49.42127 | 3.50186 | 15084 ft | 343 kts | 266° |
| 2026-05-08 20:21 | 49.41930 | 3.46543 | 15011 ft | 340 kts | 261° |
| 2026-05-08 20:22 | 49.41378 | 3.43033 | 14595 ft | 337 kts | 250° |
| 2026-05-08 20:22 | 49.40508 | 3.39705 | 14180 ft | 335 kts | 247° |
| 2026-05-08 20:22 | 49.39618 | 3.36405 | 13770 ft | 333 kts | 247° |
| 2026-05-08 20:22 | 49.38739 | 3.33144 | 13331 ft | 330 kts | 247° |
| 2026-05-08 20:23 | 49.37863 | 3.29894 | 12890 ft | 327 kts | 247° |
| 2026-05-08 20:23 | 49.36998 | 3.26683 | 12453 ft | 325 kts | 247° |
| 2026-05-08 20:23 | 49.36142 | 3.23496 | 12038 ft | 322 kts | 247° |
| 2026-05-08 20:23 | 49.35294 | 3.20336 | 11618 ft | 319 kts | 247° |
| 2026-05-08 20:24 | 49.34452 | 3.17203 | 11213 ft | 317 kts | 247° |
| 2026-05-08 20:24 | 49.33612 | 3.14079 | 11059 ft | 315 kts | 247° |
| 2026-05-08 20:24 | 49.32774 | 3.10968 | 11089 ft | 316 kts | 247° |
| 2026-05-08 20:24 | 49.31930 | 3.07843 | 11088 ft | 318 kts | 247° |
| 2026-05-08 20:25 | 49.31083 | 3.04710 | 11088 ft | 318 kts | 247° |
| 2026-05-08 20:25 | 49.30232 | 3.01577 | 11087 ft | 319 kts | 247° |
| 2026-05-08 20:25 | 49.29380 | 2.98443 | 11087 ft | 319 kts | 247° |
| 2026-05-08 20:25 | 49.28539 | 2.95350 | 11086 ft | 319 kts | 247° |
| 2026-05-08 20:26 | 49.27684 | 2.92207 | 11086 ft | 319 kts | 247° |
| 2026-05-08 20:26 | 49.26831 | 2.89078 | 11083 ft | 319 kts | 247° |
| 2026-05-08 20:26 | 49.25976 | 2.85955 | 11086 ft | 317 kts | 247° |
| 2026-05-08 20:26 | 49.25123 | 2.82849 | 11087 ft | 316 kts | 247° |
| 2026-05-08 20:27 | 49.24270 | 2.79740 | 11082 ft | 316 kts | 247° |
| 2026-05-08 20:27 | 49.23418 | 2.76635 | 11084 ft | 316 kts | 247° |
| 2026-05-08 20:27 | 49.22567 | 2.73530 | 11084 ft | 316 kts | 247° |
| 2026-05-08 20:27 | 49.21715 | 2.70426 | 11085 ft | 316 kts | 247° |
| 2026-05-08 20:28 | 49.20860 | 2.67326 | 11085 ft | 316 kts | 247° |
| 2026-05-08 20:28 | 49.20001 | 2.64223 | 11086 ft | 318 kts | 247° |
| 2026-05-08 20:28 | 49.19135 | 2.61095 | 11084 ft | 320 kts | 247° |
| 2026-05-08 20:28 | 49.18332 | 2.57932 | 11081 ft | 320 kts | 255° |
| 2026-05-08 20:29 | 49.18024 | 2.54585 | 10838 ft | 317 kts | 268° |
| 2026-05-08 20:29 | 49.17952 | 2.51222 | 10386 ft | 316 kts | 268° |
| 2026-05-08 20:29 | 49.17889 | 2.47908 | 10153 ft | 306 kts | 268° |
| 2026-05-08 20:29 | 49.17827 | 2.44772 | 10026 ft | 283 kts | 268° |
| 2026-05-08 20:30 | 49.17767 | 2.41878 | 9895 ft | 263 kts | 268° |
| 2026-05-08 20:30 | 49.17709 | 2.39173 | 9643 ft | 249 kts | 268° |
| 2026-05-08 20:30 | 49.17653 | 2.36561 | 9183 ft | 244 kts | 268° |
| 2026-05-08 20:30 | 49.17618 | 2.33974 | 8667 ft | 242 kts | 268° |
| 2026-05-08 20:31 | 49.17595 | 2.31410 | 8119 ft | 241 kts | 268° |
| 2026-05-08 20:31 | 49.17613 | 2.28854 | 7572 ft | 241 kts | 272° |
| 2026-05-08 20:31 | 49.17695 | 2.26301 | 7035 ft | 240 kts | 272° |
| 2026-05-08 20:31 | 49.17793 | 2.23754 | 6507 ft | 240 kts | 272° |
| 2026-05-08 20:32 | 49.17884 | 2.21202 | 6142 ft | 240 kts | 272° |
| 2026-05-08 20:32 | 49.17972 | 2.18674 | 6077 ft | 239 kts | 272° |
| 2026-05-08 20:32 | 49.18063 | 2.16130 | 6082 ft | 240 kts | 272° |
| 2026-05-08 20:32 | 49.18149 | 2.13612 | 6084 ft | 240 kts | 272° |
| 2026-05-08 20:33 | 49.18245 | 2.11069 | 5900 ft | 239 kts | 272° |
| 2026-05-08 20:33 | 49.18334 | 2.08533 | 5534 ft | 239 kts | 272° |
| 2026-05-08 20:33 | 49.18427 | 2.05993 | 5161 ft | 240 kts | 272° |
| 2026-05-08 20:33 | 49.18519 | 2.03450 | 4806 ft | 240 kts | 272° |
| 2026-05-08 20:34 | 49.18477 | 2.00919 | 4448 ft | 238 kts | 254° |
| 2026-05-08 20:34 | 49.17885 | 1.98572 | 4117 ft | 237 kts | 243° |
| 2026-05-08 20:34 | 49.16420 | 1.94058 | 4008 ft | 238 kts | 242° |
| 2026-05-08 20:35 | 49.15674 | 1.91803 | 4006 ft | 238 kts | 242° |
| 2026-05-08 20:35 | 49.14929 | 1.89546 | 4011 ft | 238 kts | 242° |
| 2026-05-08 20:35 | 49.14048 | 1.87420 | 4003 ft | 237 kts | 226° |
| 2026-05-08 20:35 | 49.12730 | 1.85985 | 4003 ft | 233 kts | 196° |
| 2026-05-08 20:36 | 49.11147 | 1.85551 | 4008 ft | 232 kts | 184° |
| 2026-05-08 20:36 | 49.09537 | 1.85355 | 4005 ft | 232 kts | 182° |
| 2026-05-08 20:36 | 49.07924 | 1.85186 | 4003 ft | 232 kts | 182° |
| 2026-05-08 20:36 | 49.06313 | 1.85022 | 4010 ft | 232 kts | 182° |
| 2026-05-08 20:37 | 49.04721 | 1.85196 | 4000 ft | 229 kts | 158° |
| 2026-05-08 20:37 | 49.03441 | 1.86555 | 4002 ft | 226 kts | 129° |
| 2026-05-08 20:37 | 49.02516 | 1.88489 | 4011 ft | 226 kts | 123° |
| 2026-05-08 20:37 | 49.01653 | 1.90493 | 4007 ft | 226 kts | 122° |
| 2026-05-08 20:38 | 49.00795 | 1.92507 | 4011 ft | 227 kts | 122° |
| 2026-05-08 20:38 | 48.99953 | 1.94495 | 4009 ft | 226 kts | 120° |
| 2026-05-08 20:38 | 48.99411 | 1.96719 | 4008 ft | 225 kts | 97° |
| 2026-05-08 20:38 | 48.99445 | 1.99098 | 4011 ft | 226 kts | 85° |
| 2026-05-08 20:39 | 48.99591 | 2.01475 | 4010 ft | 226 kts | 85° |
| 2026-05-08 20:39 | 48.99736 | 2.03884 | 4010 ft | 226 kts | 85° |
| 2026-05-08 20:39 | 48.99876 | 2.06270 | 4010 ft | 226 kts | 85° |
| 2026-05-08 20:39 | 49.00014 | 2.08658 | 4009 ft | 226 kts | 85° |
| 2026-05-08 20:40 | 49.00150 | 2.11008 | 4009 ft | 226 kts | 85° |
| 2026-05-08 20:40 | 49.00288 | 2.13392 | 4009 ft | 226 kts | 85° |
| 2026-05-08 20:40 | 49.00425 | 2.15778 | 4009 ft | 226 kts | 85° |
| 2026-05-08 20:40 | 49.00561 | 2.18163 | 4008 ft | 226 kts | 85° |
| 2026-05-08 20:41 | 49.00698 | 2.20552 | 4003 ft | 226 kts | 85° |
| 2026-05-08 20:41 | 49.00831 | 2.22898 | 3999 ft | 216 kts | 85° |
| 2026-05-08 20:41 | 49.00958 | 2.25136 | 3874 ft | 209 kts | 85° |
| 2026-05-08 20:41 | 49.01082 | 2.27332 | 3629 ft | 208 kts | 85° |
| 2026-05-08 20:42 | 49.01204 | 2.29503 | 3368 ft | 201 kts | 85° |
| 2026-05-08 20:42 | 49.01320 | 2.31567 | 3131 ft | 189 kts | 85° |
| 2026-05-08 20:42 | 49.01429 | 2.33524 | 2866 ft | 183 kts | 85° |
| 2026-05-08 20:42 | 49.01536 | 2.35437 | 2619 ft | 179 kts | 85° |
| 2026-05-08 20:43 | 49.01640 | 2.37323 | 2379 ft | 177 kts | 84° |
| 2026-05-08 20:43 | 49.01740 | 2.39131 | 2159 ft | 164 kts | 85° |
| 2026-05-08 20:43 | 49.01832 | 2.40800 | 1927 ft | 152 kts | 84° |
| 2026-05-08 20:43 | 49.01918 | 2.42354 | 1736 ft | 144 kts | 84° |
| 2026-05-08 20:44 | 49.01999 | 2.43836 | 1561 ft | 138 kts | 85° |
| 2026-05-08 20:44 | 49.02080 | 2.45299 | 1369 ft | 137 kts | 85° |
| 2026-05-08 20:44 | 49.02159 | 2.46747 | 1179 ft | 137 kts | 84° |
| 2026-05-08 20:44 | 49.02239 | 2.48212 | 987 ft | 139 kts | 83° |
| 2026-05-08 20:45 | 49.02319 | 2.49675 | 795 ft | 139 kts | 84° |
| 2026-05-08 20:45 | 49.02371 | 2.50643 | 676 ft | 139 kts | 84° |
| 2026-05-08 20:45 | 49.02478 | 2.52608 | 425 ft | 139 kts | 83° |
| 2026-05-08 20:45 | 49.02555 | 2.53915 | 356 ft | 95 kts | 84° |
| 2026-05-08 20:46 | 49.02596 | 2.54608 | 356 ft | 51 kts | 85° |
| 2026-05-08 20:46 | 49.02609 | 2.55029 | 354 ft | 23 kts | 96° |
| 2026-05-08 20:46 | 49.02575 | 2.55268 | 363 ft | 23 kts | 107° |
| 2026-05-08 20:46 | 49.02523 | 2.55439 | 360 ft | 16 kts | 115° |
| 2026-05-08 20:47 | 49.02478 | 2.55602 | 363 ft | 17 kts | 105° |
| 2026-05-08 20:47 | 49.02478 | 2.55764 | 357 ft | 12 kts | 83° |
| 2026-05-08 20:47 | 49.02486 | 2.55904 | 354 ft | 14 kts | 85° |
| 2026-05-08 20:47 | 49.02494 | 2.56049 | 363 ft | 13 kts | 89° |
| 2026-05-08 20:48 | 49.02475 | 2.56125 | 362 ft | 0 kts | 129° |
| 2026-05-08 20:48 | 49.02474 | 2.56128 | 361 ft | 4 kts | 129° |
| 2026-05-08 20:48 | 49.02437 | 2.56155 | 363 ft | 0 kts | 176° |
| 2026-05-08 20:49 | 49.02431 | 2.56156 | 359 ft | 6 kts | 176° |
| 2026-05-08 20:49 | 49.02328 | 2.56169 | 354 ft | 15 kts | 174° |
| 2026-05-08 20:49 | 49.02253 | 2.56249 | 363 ft | 11 kts | 131° |
| 2026-05-08 20:49 | 49.02190 | 2.56304 | 359 ft | 10 kts | 169° |
| 2026-05-08 20:50 | 49.02157 | 2.56308 | 355 ft | 0 kts | 175° |
| 2026-05-08 20:51 | 49.02119 | 2.56313 | 355 ft | 14 kts | 175° |
| 2026-05-08 20:51 | 49.02025 | 2.56418 | 357 ft | 21 kts | 99° |
| 2026-05-08 20:51 | 49.02032 | 2.56611 | 361 ft | 17 kts | 85° |
| 2026-05-08 20:51 | 49.02042 | 2.56806 | 354 ft | 19 kts | 85° |
| 2026-05-08 20:52 | 49.02050 | 2.56945 | 354 ft | 21 kts | 85° |
| 2026-05-08 20:52 | 49.02064 | 2.57170 | 357 ft | 22 kts | 86° |
| 2026-05-08 20:52 | 49.02077 | 2.57412 | 361 ft | 24 kts | 84° |
| 2026-05-08 20:52 | 49.02091 | 2.57636 | 360 ft | 20 kts | 84° |
| 2026-05-08 20:53 | 49.02076 | 2.57852 | 360 ft | 21 kts | 110° |
| 2026-05-08 20:53 | 49.01985 | 2.58039 | 359 ft | 23 kts | 143° |
| 2026-05-08 20:53 | 49.01830 | 2.58123 | 359 ft | 21 kts | 174° |
| 2026-05-08 20:53 | 49.01711 | 2.58138 | 361 ft | 15 kts | 175° |
| 2026-05-08 20:54 | 49.01611 | 2.58149 | 357 ft | 14 kts | 176° |
| 2026-05-08 20:54 | 49.01521 | 2.58158 | 354 ft | 12 kts | 176° |
| 2026-05-08 20:54 | 49.01442 | 2.58169 | 354 ft | 11 kts | 174° |
| 2026-05-08 20:54 | 49.01371 | 2.58180 | 354 ft | 10 kts | 174° |
| 2026-05-08 20:55 | 49.01309 | 2.58189 | 354 ft | 8 kts | 174° |
| 2026-05-08 20:55 | 49.01255 | 2.58197 | 356 ft | 7 kts | 174° |
| 2026-05-08 20:55 | 49.01207 | 2.58204 | 356 ft | 6 kts | 174° |
| 2026-05-08 20:55 | 49.01166 | 2.58209 | 354 ft | 5 kts | 175° |
| 2026-05-08 20:56 | 49.01131 | 2.58214 | 361 ft | 5 kts | 175° |
| 2026-05-08 20:56 | 49.01103 | 2.58217 | 357 ft | 0 kts | 175° |
| 2026-05-08 20:57 | 49.01076 | 2.58220 | 354 ft | 12 kts | 175° |
| 2026-05-08 20:58 | 49.00965 | 2.58234 | 354 ft | 18 kts | 175° |
| 2026-05-08 20:58 | 49.00867 | 2.58255 | 354 ft | 11 kts | 185° |
| 2026-05-08 20:58 | 49.00820 | 2.58179 | 355 ft | 10 kts | 250° |
| 2026-05-08 20:58 | 49.00773 | 2.58127 | 359 ft | 8 kts | 183° |
| 2026-05-08 20:59 | 49.00769 | 2.58127 | 358 ft | 0 kts | 178° |
| 2026-05-08 21:02 | 49.00765 | 2.58127 | 361 ft | 3 kts | 179° |
| 2026-05-08 21:02 | 49.00750 | 2.58107 | 355 ft | 2 kts | 233° |
| 2026-05-08 21:02 | 49.00744 | 2.58084 | 360 ft | 4 kts | 252° |
| 2026-05-08 21:02 | 49.00740 | 2.58052 | 359 ft | 3 kts | 257° |
| 2026-05-08 21:03 | 49.00733 | 2.58032 | 360 ft | 2 kts | 237° |
| 2026-05-08 21:03 | 49.00726 | 2.58019 | 357 ft | 1 kts | 233° |
| 2026-05-08 21:03 | 49.00723 | 2.58013 | 361 ft | 0 kts | 231° |